sensor_id;sensor_type;location;lat;lon;timestamp;noise_LAeq;noise_LA_min;noise_LA_max;noise_LA01;noise_LA95
72028;Laerm;59781;52.090;5.030;2023-06-14T00:01:57;39.56;36.53;45.41;;
72028;Laerm;59781;52.090;5.030;2023-06-14T00:04:23;39.14;35.84;47.89;;
72028;Laerm;59781;52.090;5.030;2023-06-14T00:06:50;40.05;36.58;50.61;;
72028;Laerm;59781;52.090;5.030;2023-06-14T00:09:16;39.80;36.24;56.85;;
72028;Laerm;59781;52.090;5.030;2023-06-14T00:11:45;40.80;36.18;63.21;;
72028;Laerm;59781;52.090;5.030;2023-06-14T00:14:11;40.19;36.46;59.38;;
72028;Laerm;59781;52.090;5.030;2023-06-14T00:16:36;39.19;35.85;43.36;;
72028;Laerm;59781;52.090;5.030;2023-06-14T00:19:04;39.59;35.90;58.31;;
72028;Laerm;59781;52.090;5.030;2023-06-14T00:21:32;39.90;36.39;49.38;;
72028;Laerm;59781;52.090;5.030;2023-06-14T00:23:58;40.27;36.45;48.95;;
72028;Laerm;59781;52.090;5.030;2023-06-14T00:26:25;47.27;36.42;72.38;;
72028;Laerm;59781;52.090;5.030;2023-06-14T00:28:52;41.28;37.13;59.45;;
72028;Laerm;59781;52.090;5.030;2023-06-14T00:31:18;42.64;37.20;65.56;;
72028;Laerm;59781;52.090;5.030;2023-06-14T00:33:44;40.46;36.78;59.92;;
72028;Laerm;59781;52.090;5.030;2023-06-14T00:36:12;40.30;36.51;56.46;;
72028;Laerm;59781;52.090;5.030;2023-06-14T00:38:38;41.44;36.78;61.82;;
72028;Laerm;59781;52.090;5.030;2023-06-14T00:41:03;40.19;36.82;47.19;;
72028;Laerm;59781;52.090;5.030;2023-06-14T00:43:29;40.23;36.74;60.21;;
72028;Laerm;59781;52.090;5.030;2023-06-14T00:45:55;40.31;36.62;53.91;;
72028;Laerm;59781;52.090;5.030;2023-06-14T00:48:22;39.55;35.78;51.93;;
72028;Laerm;59781;52.090;5.030;2023-06-14T00:50:51;40.19;36.19;53.68;;
72028;Laerm;59781;52.090;5.030;2023-06-14T00:53:19;39.91;36.47;58.39;;
72028;Laerm;59781;52.090;5.030;2023-06-14T00:55:51;39.93;36.62;48.68;;
72028;Laerm;59781;52.090;5.030;2023-06-14T00:58:17;40.61;36.24;54.48;;
72028;Laerm;59781;52.090;5.030;2023-06-14T01:00:42;41.50;37.41;59.25;;
72028;Laerm;59781;52.090;5.030;2023-06-14T01:03:09;40.57;37.00;49.39;;
72028;Laerm;59781;52.090;5.030;2023-06-14T01:05:38;40.96;36.87;48.45;;
72028;Laerm;59781;52.090;5.030;2023-06-14T01:08:40;39.81;36.96;50.29;;
72028;Laerm;59781;52.090;5.030;2023-06-14T01:11:22;40.40;36.64;54.13;;
72028;Laerm;59781;52.090;5.030;2023-06-14T01:13:53;40.35;37.07;51.53;;
72028;Laerm;59781;52.090;5.030;2023-06-14T01:16:22;40.46;36.82;57.26;;
72028;Laerm;59781;52.090;5.030;2023-06-14T01:18:48;41.44;37.47;61.28;;
72028;Laerm;59781;52.090;5.030;2023-06-14T01:21:23;40.94;36.93;57.84;;
72028;Laerm;59781;52.090;5.030;2023-06-14T01:23:50;40.12;36.71;54.59;;
72028;Laerm;59781;52.090;5.030;2023-06-14T01:26:23;40.55;37.27;53.59;;
72028;Laerm;59781;52.090;5.030;2023-06-14T01:28:53;41.11;36.20;51.30;;
72028;Laerm;59781;52.090;5.030;2023-06-14T01:31:23;40.45;36.99;48.58;;
72028;Laerm;59781;52.090;5.030;2023-06-14T01:33:52;40.03;36.74;49.02;;
72028;Laerm;59781;52.090;5.030;2023-06-14T01:36:22;39.91;36.28;45.99;;
72028;Laerm;59781;52.090;5.030;2023-06-14T01:38:50;39.94;36.91;43.89;;
72028;Laerm;59781;52.090;5.030;2023-06-14T01:41:19;40.46;36.91;44.62;;
72028;Laerm;59781;52.090;5.030;2023-06-14T01:43:49;40.41;37.06;52.10;;
72028;Laerm;59781;52.090;5.030;2023-06-14T01:46:17;40.28;36.76;50.98;;
72028;Laerm;59781;52.090;5.030;2023-06-14T01:48:43;40.45;36.84;53.63;;
72028;Laerm;59781;52.090;5.030;2023-06-14T01:51:09;40.48;37.05;54.02;;
72028;Laerm;59781;52.090;5.030;2023-06-14T01:53:35;41.27;36.84;61.86;;
72028;Laerm;59781;52.090;5.030;2023-06-14T01:56:01;40.21;36.57;45.34;;
72028;Laerm;59781;52.090;5.030;2023-06-14T01:58:30;40.78;36.92;51.85;;
72028;Laerm;59781;52.090;5.030;2023-06-14T02:00:57;41.56;37.95;49.35;;
72028;Laerm;59781;52.090;5.030;2023-06-14T02:03:23;40.09;36.77;52.98;;
72028;Laerm;59781;52.090;5.030;2023-06-14T02:05:52;40.47;36.81;49.58;;
72028;Laerm;59781;52.090;5.030;2023-06-14T02:08:17;41.16;37.19;51.29;;
72028;Laerm;59781;52.090;5.030;2023-06-14T02:10:43;40.74;37.37;45.93;;
72028;Laerm;59781;52.090;5.030;2023-06-14T02:13:09;40.28;36.65;45.16;;
72028;Laerm;59781;52.090;5.030;2023-06-14T02:15:35;41.38;37.80;47.74;;
72028;Laerm;59781;52.090;5.030;2023-06-14T02:18:04;41.29;37.47;48.70;;
72028;Laerm;59781;52.090;5.030;2023-06-14T02:20:32;40.66;37.28;44.51;;
72028;Laerm;59781;52.090;5.030;2023-06-14T02:22:58;41.56;36.89;55.45;;
72028;Laerm;59781;52.090;5.030;2023-06-14T02:25:23;41.20;37.37;48.45;;
72028;Laerm;59781;52.090;5.030;2023-06-14T02:27:49;41.52;37.44;60.33;;
72028;Laerm;59781;52.090;5.030;2023-06-14T02:30:15;40.79;37.44;54.90;;
72028;Laerm;59781;52.090;5.030;2023-06-14T02:32:41;42.08;37.29;65.14;;
72028;Laerm;59781;52.090;5.030;2023-06-14T02:35:08;40.99;36.94;61.59;;
72028;Laerm;59781;52.090;5.030;2023-06-14T02:37:34;41.47;37.64;55.44;;
72028;Laerm;59781;52.090;5.030;2023-06-14T02:40:00;40.66;37.50;50.30;;
72028;Laerm;59781;52.090;5.030;2023-06-14T02:42:26;42.67;37.21;63.64;;
72028;Laerm;59781;52.090;5.030;2023-06-14T02:44:52;40.73;37.32;47.85;;
72028;Laerm;59781;52.090;5.030;2023-06-14T02:47:18;41.27;37.59;49.55;;
72028;Laerm;59781;52.090;5.030;2023-06-14T02:49:44;41.67;37.56;59.82;;
72028;Laerm;59781;52.090;5.030;2023-06-14T02:52:14;42.17;37.73;64.43;;
72028;Laerm;59781;52.090;5.030;2023-06-14T02:54:40;41.32;37.36;49.00;;
72028;Laerm;59781;52.090;5.030;2023-06-14T02:57:07;41.49;37.67;56.76;;
72028;Laerm;59781;52.090;5.030;2023-06-14T02:59:34;43.10;38.63;60.97;;
72028;Laerm;59781;52.090;5.030;2023-06-14T03:02:00;43.49;38.48;63.64;;
72028;Laerm;59781;52.090;5.030;2023-06-14T03:04:26;43.96;39.09;58.14;;
72028;Laerm;59781;52.090;5.030;2023-06-14T03:06:52;43.76;37.82;55.94;;
72028;Laerm;59781;52.090;5.030;2023-06-14T03:09:20;43.27;39.17;56.64;;
72028;Laerm;59781;52.090;5.030;2023-06-14T03:11:46;44.97;38.87;56.88;;
72028;Laerm;59781;52.090;5.030;2023-06-14T03:14:12;46.06;39.27;57.96;;
72028;Laerm;59781;52.090;5.030;2023-06-14T03:16:39;43.66;39.41;63.66;;
72028;Laerm;59781;52.090;5.030;2023-06-14T03:19:08;43.44;39.62;55.65;;
72028;Laerm;59781;52.090;5.030;2023-06-14T03:21:34;43.14;38.28;50.13;;
72028;Laerm;59781;52.090;5.030;2023-06-14T03:24:02;43.58;39.66;57.99;;
72028;Laerm;59781;52.090;5.030;2023-06-14T03:26:29;43.35;39.21;54.28;;
72028;Laerm;59781;52.090;5.030;2023-06-14T03:28:58;43.77;39.49;58.17;;
72028;Laerm;59781;52.090;5.030;2023-06-14T03:31:23;43.09;39.52;48.77;;
72028;Laerm;59781;52.090;5.030;2023-06-14T03:33:50;43.97;40.28;53.38;;
72028;Laerm;59781;52.090;5.030;2023-06-14T03:36:16;44.48;40.32;60.95;;
72028;Laerm;59781;52.090;5.030;2023-06-14T03:38:43;44.69;40.49;56.48;;
72028;Laerm;59781;52.090;5.030;2023-06-14T03:41:10;44.52;40.28;54.98;;
72028;Laerm;59781;52.090;5.030;2023-06-14T03:43:35;44.28;40.43;55.72;;
72028;Laerm;59781;52.090;5.030;2023-06-14T03:46:01;44.52;40.52;56.82;;
72028;Laerm;59781;52.090;5.030;2023-06-14T03:48:29;44.98;40.89;55.74;;
72028;Laerm;59781;52.090;5.030;2023-06-14T03:50:55;45.50;41.12;52.66;;
72028;Laerm;59781;52.090;5.030;2023-06-14T03:53:21;46.11;41.41;66.17;;
72028;Laerm;59781;52.090;5.030;2023-06-14T03:55:50;51.72;41.12;73.38;;
72028;Laerm;59781;52.090;5.030;2023-06-14T03:58:19;45.45;40.37;58.72;;
72028;Laerm;59781;52.090;5.030;2023-06-14T04:00:46;45.86;42.20;52.31;;
72028;Laerm;59781;52.090;5.030;2023-06-14T04:03:12;45.75;41.72;51.62;;
72028;Laerm;59781;52.090;5.030;2023-06-14T04:05:41;46.19;41.79;64.64;;
72028;Laerm;59781;52.090;5.030;2023-06-14T04:08:09;46.50;42.24;52.91;;
72028;Laerm;59781;52.090;5.030;2023-06-14T04:10:36;46.05;41.76;56.74;;
72028;Laerm;59781;52.090;5.030;2023-06-14T04:13:01;46.66;42.75;51.08;;
72028;Laerm;59781;52.090;5.030;2023-06-14T04:15:27;46.76;41.86;56.59;;
72028;Laerm;59781;52.090;5.030;2023-06-14T04:17:57;46.52;42.34;54.29;;
72028;Laerm;59781;52.090;5.030;2023-06-14T04:20:24;46.63;42.18;62.55;;
72028;Laerm;59781;52.090;5.030;2023-06-14T04:22:51;47.03;42.66;54.92;;
72028;Laerm;59781;52.090;5.030;2023-06-14T04:25:18;46.29;42.20;56.28;;
72028;Laerm;59781;52.090;5.030;2023-06-14T04:27:44;47.10;43.06;59.19;;
72028;Laerm;59781;52.090;5.030;2023-06-14T04:30:10;46.74;42.54;57.10;;
72028;Laerm;59781;52.090;5.030;2023-06-14T04:32:41;46.41;42.23;52.36;;
72028;Laerm;59781;52.090;5.030;2023-06-14T04:35:10;47.44;42.70;56.03;;
72028;Laerm;59781;52.090;5.030;2023-06-14T04:37:38;47.64;42.16;66.43;;
72028;Laerm;59781;52.090;5.030;2023-06-14T04:40:07;49.46;43.27;60.78;;
72028;Laerm;59781;52.090;5.030;2023-06-14T04:42:35;47.62;42.95;58.86;;
72028;Laerm;59781;52.090;5.030;2023-06-14T04:45:04;47.99;42.65;54.41;;
72028;Laerm;59781;52.090;5.030;2023-06-14T04:47:30;48.00;43.64;59.24;;
72028;Laerm;59781;52.090;5.030;2023-06-14T04:49:57;47.46;42.71;54.01;;
72028;Laerm;59781;52.090;5.030;2023-06-14T04:52:26;50.36;42.50;75.49;;
72028;Laerm;59781;52.090;5.030;2023-06-14T04:54:54;51.82;44.82;61.75;;
72028;Laerm;59781;52.090;5.030;2023-06-14T04:57:21;49.54;43.88;61.24;;
72028;Laerm;59781;52.090;5.030;2023-06-14T04:59:49;50.69;43.85;67.88;;
72028;Laerm;59781;52.090;5.030;2023-06-14T05:02:24;52.24;43.41;63.73;;
72028;Laerm;59781;52.090;5.030;2023-06-14T05:04:51;47.63;42.81;65.70;;
72028;Laerm;59781;52.090;5.030;2023-06-14T05:07:17;48.07;43.01;57.21;;
72028;Laerm;59781;52.090;5.030;2023-06-14T05:09:45;48.61;43.11;62.40;;
72028;Laerm;59781;52.090;5.030;2023-06-14T05:12:12;48.23;43.84;61.61;;
72028;Laerm;59781;52.090;5.030;2023-06-14T05:14:37;47.98;43.07;63.98;;
72028;Laerm;59781;52.090;5.030;2023-06-14T05:17:05;56.37;43.12;69.74;;
72028;Laerm;59781;52.090;5.030;2023-06-14T05:19:31;54.66;44.40;66.94;;
72028;Laerm;59781;52.090;5.030;2023-06-14T05:21:57;51.40;43.49;63.01;;
72028;Laerm;59781;52.090;5.030;2023-06-14T05:24:22;48.56;42.72;69.62;;
72028;Laerm;59781;52.090;5.030;2023-06-14T05:26:48;48.40;42.68;69.49;;
72028;Laerm;59781;52.090;5.030;2023-06-14T05:29:14;47.82;42.38;61.65;;
72028;Laerm;59781;52.090;5.030;2023-06-14T05:31:40;50.32;43.62;70.38;;
72028;Laerm;59781;52.090;5.030;2023-06-14T05:34:05;48.50;42.41;66.86;;
72028;Laerm;59781;52.090;5.030;2023-06-14T05:36:31;48.60;42.46;60.52;;
72028;Laerm;59781;52.090;5.030;2023-06-14T05:38:57;56.76;42.38;69.52;;
72028;Laerm;59781;52.090;5.030;2023-06-14T05:41:26;57.78;42.99;77.09;;
72028;Laerm;59781;52.090;5.030;2023-06-14T05:43:54;47.68;42.13;58.21;;
72028;Laerm;59781;52.090;5.030;2023-06-14T05:46:20;49.59;42.43;65.44;;
72028;Laerm;59781;52.090;5.030;2023-06-14T05:48:50;51.17;42.83;61.72;;
72028;Laerm;59781;52.090;5.030;2023-06-14T05:51:16;50.37;41.78;65.17;;
72028;Laerm;59781;52.090;5.030;2023-06-14T05:53:50;46.42;41.65;63.85;;
72028;Laerm;59781;52.090;5.030;2023-06-14T05:56:17;48.22;41.96;68.61;;
72028;Laerm;59781;52.090;5.030;2023-06-14T05:58:44;48.40;40.21;64.67;;
72028;Laerm;59781;52.090;5.030;2023-06-14T06:01:09;49.90;42.43;66.73;;
72028;Laerm;59781;52.090;5.030;2023-06-14T06:03:36;48.58;42.33;63.70;;
72028;Laerm;59781;52.090;5.030;2023-06-14T06:06:01;48.73;41.40;75.34;;
72028;Laerm;59781;52.090;5.030;2023-06-14T06:08:29;46.81;41.35;57.62;;
72028;Laerm;59781;52.090;5.030;2023-06-14T06:10:56;49.59;40.89;71.71;;
72028;Laerm;59781;52.090;5.030;2023-06-14T06:13:22;46.87;40.65;73.13;;
72028;Laerm;59781;52.090;5.030;2023-06-14T06:15:48;46.57;40.73;65.87;;
72028;Laerm;59781;52.090;5.030;2023-06-14T06:18:13;49.82;40.58;62.88;;
72028;Laerm;59781;52.090;5.030;2023-06-14T06:20:39;48.34;40.53;73.63;;
72028;Laerm;59781;52.090;5.030;2023-06-14T06:23:05;46.40;39.61;67.89;;
72028;Laerm;59781;52.090;5.030;2023-06-14T06:25:31;46.63;40.15;67.19;;
72028;Laerm;59781;52.090;5.030;2023-06-14T06:27:57;45.12;39.01;69.53;;
72028;Laerm;59781;52.090;5.030;2023-06-14T06:30:24;44.29;38.50;65.75;;
72028;Laerm;59781;52.090;5.030;2023-06-14T06:32:51;45.68;39.54;68.90;;
72028;Laerm;59781;52.090;5.030;2023-06-14T06:35:17;56.11;40.08;85.05;;
72028;Laerm;59781;52.090;5.030;2023-06-14T06:37:43;65.84;39.96;93.90;;
72028;Laerm;59781;52.090;5.030;2023-06-14T06:40:09;44.72;38.39;64.04;;
72028;Laerm;59781;52.090;5.030;2023-06-14T06:42:35;45.30;38.13;66.34;;
72028;Laerm;59781;52.090;5.030;2023-06-14T06:45:04;44.91;38.49;62.26;;
72028;Laerm;59781;52.090;5.030;2023-06-14T06:47:30;46.98;38.55;64.14;;
72028;Laerm;59781;52.090;5.030;2023-06-14T06:49:56;45.27;38.76;63.85;;
72028;Laerm;59781;52.090;5.030;2023-06-14T06:52:22;49.67;37.18;74.55;;
72028;Laerm;59781;52.090;5.030;2023-06-14T06:54:48;45.98;37.68;74.20;;
72028;Laerm;59781;52.090;5.030;2023-06-14T06:57:14;47.25;38.20;67.56;;
72028;Laerm;59781;52.090;5.030;2023-06-14T06:59:40;49.48;37.82;69.83;;
72028;Laerm;59781;52.090;5.030;2023-06-14T07:02:06;46.67;37.65;66.37;;
72028;Laerm;59781;52.090;5.030;2023-06-14T07:04:32;50.57;38.15;81.35;;
72028;Laerm;59781;52.090;5.030;2023-06-14T07:06:57;47.93;37.30;68.36;;
72028;Laerm;59781;52.090;5.030;2023-06-14T07:09:23;45.96;36.11;71.03;;
72028;Laerm;59781;52.090;5.030;2023-06-14T07:11:50;42.87;36.47;61.82;;
72028;Laerm;59781;52.090;5.030;2023-06-14T07:14:16;44.86;36.44;66.08;;
72028;Laerm;59781;52.090;5.030;2023-06-14T07:16:42;43.98;36.82;62.99;;
72028;Laerm;59781;52.090;5.030;2023-06-14T07:19:09;40.83;35.95;57.93;;
72028;Laerm;59781;52.090;5.030;2023-06-14T07:21:35;48.70;36.97;70.89;;
72028;Laerm;59781;52.090;5.030;2023-06-14T07:24:05;43.51;37.30;54.67;;
72028;Laerm;59781;52.090;5.030;2023-06-14T07:26:32;44.52;37.55;64.80;;
72028;Laerm;59781;52.090;5.030;2023-06-14T07:28:58;50.00;37.49;63.97;;
72028;Laerm;59781;52.090;5.030;2023-06-14T07:31:24;58.80;39.84;70.03;;
72028;Laerm;59781;52.090;5.030;2023-06-14T07:33:50;49.51;38.10;74.81;;
72028;Laerm;59781;52.090;5.030;2023-06-14T07:36:16;43.41;37.31;61.78;;
72028;Laerm;59781;52.090;5.030;2023-06-14T07:38:43;42.31;37.02;56.60;;
72028;Laerm;59781;52.090;5.030;2023-06-14T07:41:09;42.79;37.41;51.62;;
72028;Laerm;59781;52.090;5.030;2023-06-14T07:43:35;48.10;37.22;68.80;;
72028;Laerm;59781;52.090;5.030;2023-06-14T07:46:01;51.88;37.81;71.59;;
72028;Laerm;59781;52.090;5.030;2023-06-14T07:48:28;54.57;38.16;67.71;;
72028;Laerm;59781;52.090;5.030;2023-06-14T07:50:54;59.02;37.92;79.02;;
72028;Laerm;59781;52.090;5.030;2023-06-14T07:53:19;50.61;37.21;74.65;;
72028;Laerm;59781;52.090;5.030;2023-06-14T07:55:45;45.42;37.02;67.03;;
72028;Laerm;59781;52.090;5.030;2023-06-14T07:58:12;49.51;36.77;72.99;;
72028;Laerm;59781;52.090;5.030;2023-06-14T08:00:38;47.77;37.31;63.25;;
72028;Laerm;59781;52.090;5.030;2023-06-14T08:03:04;50.50;37.05;66.46;;
72028;Laerm;59781;52.090;5.030;2023-06-14T08:05:29;47.46;38.56;59.88;;
72028;Laerm;59781;52.090;5.030;2023-06-14T08:07:55;47.83;37.07;70.23;;
72028;Laerm;59781;52.090;5.030;2023-06-14T08:10:22;47.84;37.40;69.08;;
72028;Laerm;59781;52.090;5.030;2023-06-14T08:12:48;49.75;37.99;70.73;;
72028;Laerm;59781;52.090;5.030;2023-06-14T08:15:16;54.26;37.90;85.78;;
72028;Laerm;59781;52.090;5.030;2023-06-14T08:17:43;49.94;37.64;75.93;;
72028;Laerm;59781;52.090;5.030;2023-06-14T08:20:10;44.21;35.86;58.87;;
72028;Laerm;59781;52.090;5.030;2023-06-14T08:22:36;52.08;38.16;73.43;;
72028;Laerm;59781;52.090;5.030;2023-06-14T08:25:04;51.73;37.87;68.03;;
72028;Laerm;59781;52.090;5.030;2023-06-14T08:27:30;56.43;38.92;75.57;;
72028;Laerm;59781;52.090;5.030;2023-06-14T08:29:56;53.58;39.21;74.41;;
72028;Laerm;59781;52.090;5.030;2023-06-14T08:32:22;54.97;38.71;73.46;;
72028;Laerm;59781;52.090;5.030;2023-06-14T08:34:48;54.33;37.59;78.21;;
72028;Laerm;59781;52.090;5.030;2023-06-14T08:37:14;50.61;36.75;72.32;;
72028;Laerm;59781;52.090;5.030;2023-06-14T08:39:40;52.73;37.22;74.71;;
72028;Laerm;59781;52.090;5.030;2023-06-14T08:42:09;54.07;37.74;72.54;;
72028;Laerm;59781;52.090;5.030;2023-06-14T08:44:36;54.11;37.68;78.28;;
72028;Laerm;59781;52.090;5.030;2023-06-14T08:47:02;52.61;37.62;74.45;;
72028;Laerm;59781;52.090;5.030;2023-06-14T08:49:33;54.28;36.80;80.12;;
72028;Laerm;59781;52.090;5.030;2023-06-14T08:52:00;50.21;37.39;70.81;;
72028;Laerm;59781;52.090;5.030;2023-06-14T08:54:28;51.98;36.94;83.50;;
72028;Laerm;59781;52.090;5.030;2023-06-14T08:57:03;50.21;37.90;75.81;;
72028;Laerm;59781;52.090;5.030;2023-06-14T08:59:33;44.49;38.21;66.15;;
72028;Laerm;59781;52.090;5.030;2023-06-14T09:02:06;49.56;38.57;71.14;;
72028;Laerm;59781;52.090;5.030;2023-06-14T09:04:32;46.88;37.80;68.68;;
72028;Laerm;59781;52.090;5.030;2023-06-14T09:06:58;47.70;38.75;67.88;;
72028;Laerm;59781;52.090;5.030;2023-06-14T09:09:24;47.37;38.35;66.22;;
72028;Laerm;59781;52.090;5.030;2023-06-14T09:11:51;51.23;37.89;70.29;;
72028;Laerm;59781;52.090;5.030;2023-06-14T09:14:23;47.87;38.45;71.97;;
72028;Laerm;59781;52.090;5.030;2023-06-14T09:16:54;52.63;38.08;79.62;;
72028;Laerm;59781;52.090;5.030;2023-06-14T09:19:25;46.67;37.41;72.75;;
72028;Laerm;59781;52.090;5.030;2023-06-14T09:21:52;43.89;37.10;62.37;;
72028;Laerm;59781;52.090;5.030;2023-06-14T09:24:19;48.04;37.59;64.75;;
72028;Laerm;59781;52.090;5.030;2023-06-14T09:26:47;47.64;37.28;70.63;;
72028;Laerm;59781;52.090;5.030;2023-06-14T09:29:16;46.83;37.42;68.02;;
72028;Laerm;59781;52.090;5.030;2023-06-14T09:31:42;45.94;37.90;73.25;;
72028;Laerm;59781;52.090;5.030;2023-06-14T09:34:09;42.77;37.19;59.22;;
72028;Laerm;59781;52.090;5.030;2023-06-14T09:36:34;42.69;36.52;60.42;;
72028;Laerm;59781;52.090;5.030;2023-06-14T09:39:03;47.52;36.70;73.61;;
72028;Laerm;59781;52.090;5.030;2023-06-14T09:41:41;47.22;36.87;69.28;;
72028;Laerm;59781;52.090;5.030;2023-06-14T09:44:10;47.57;37.84;68.61;;
72028;Laerm;59781;52.090;5.030;2023-06-14T09:46:38;53.75;37.81;82.15;;
72028;Laerm;59781;52.090;5.030;2023-06-14T09:49:07;44.43;37.05;67.76;;
72028;Laerm;59781;52.090;5.030;2023-06-14T09:51:36;48.84;35.99;68.61;;
72028;Laerm;59781;52.090;5.030;2023-06-14T09:54:20;49.86;36.85;80.68;;
72028;Laerm;59781;52.090;5.030;2023-06-14T09:56:48;45.42;37.47;70.90;;
72028;Laerm;59781;52.090;5.030;2023-06-14T09:59:22;45.39;36.94;65.23;;
72028;Laerm;59781;52.090;5.030;2023-06-14T10:01:58;51.49;37.66;73.89;;
72028;Laerm;59781;52.090;5.030;2023-06-14T10:04:29;46.90;36.79;71.53;;
72028;Laerm;59781;52.090;5.030;2023-06-14T10:06:58;44.00;37.60;66.96;;
72028;Laerm;59781;52.090;5.030;2023-06-14T10:09:25;50.69;38.55;76.45;;
72028;Laerm;59781;52.090;5.030;2023-06-14T10:11:52;51.12;39.11;76.11;;
72028;Laerm;59781;52.090;5.030;2023-06-14T10:14:19;47.15;38.62;72.78;;
72028;Laerm;59781;52.090;5.030;2023-06-14T10:17:01;45.24;37.79;62.82;;
72028;Laerm;59781;52.090;5.030;2023-06-14T10:19:42;43.63;36.56;67.70;;
72028;Laerm;59781;52.090;5.030;2023-06-14T10:22:19;46.72;36.79;66.87;;
72028;Laerm;59781;52.090;5.030;2023-06-14T10:24:48;44.24;36.25;64.91;;
72028;Laerm;59781;52.090;5.030;2023-06-14T10:27:16;50.03;37.20;72.26;;
72028;Laerm;59781;52.090;5.030;2023-06-14T10:32:18;50.31;38.61;60.15;;
72028;Laerm;59781;52.090;5.030;2023-06-14T10:34:44;49.57;38.73;68.88;;
72028;Laerm;59781;52.090;5.030;2023-06-14T10:37:13;46.10;37.57;67.31;;
72028;Laerm;59781;52.090;5.030;2023-06-14T10:39:43;51.66;38.72;72.93;;
72028;Laerm;59781;52.090;5.030;2023-06-14T10:42:09;49.88;38.94;75.52;;
72028;Laerm;59781;52.090;5.030;2023-06-14T10:44:40;45.27;37.87;63.02;;
72028;Laerm;59781;52.090;5.030;2023-06-14T10:47:56;48.86;38.05;67.42;;
72028;Laerm;59781;52.090;5.030;2023-06-14T10:50:09;47.92;38.80;70.21;;
72028;Laerm;59781;52.090;5.030;2023-06-14T10:52:41;49.63;39.02;72.90;;
72028;Laerm;59781;52.090;5.030;2023-06-14T10:55:15;48.30;38.31;67.53;;
72028;Laerm;59781;52.090;5.030;2023-06-14T10:57:53;45.91;37.21;66.47;;
72028;Laerm;59781;52.090;5.030;2023-06-14T11:00:27;47.19;37.52;67.65;;
72028;Laerm;59781;52.090;5.030;2023-06-14T11:10:48;49.91;41.54;70.36;;
72028;Laerm;59781;52.090;5.030;2023-06-14T11:13:16;47.52;40.61;67.43;;
72028;Laerm;59781;52.090;5.030;2023-06-14T11:15:47;47.53;40.27;65.85;;
72028;Laerm;59781;52.090;5.030;2023-06-14T11:18:15;46.95;40.49;68.20;;
72028;Laerm;59781;52.090;5.030;2023-06-14T11:20:42;48.66;40.11;68.90;;
72028;Laerm;59781;52.090;5.030;2023-06-14T11:23:08;48.95;41.42;67.28;;
72028;Laerm;59781;52.090;5.030;2023-06-14T11:25:33;47.27;41.23;64.05;;
72028;Laerm;59781;52.090;5.030;2023-06-14T11:27:59;49.02;40.45;68.91;;
72028;Laerm;59781;52.090;5.030;2023-06-14T11:30:26;47.94;40.58;68.22;;
72028;Laerm;59781;52.090;5.030;2023-06-14T11:32:54;46.55;40.35;63.37;;
72028;Laerm;59781;52.090;5.030;2023-06-14T11:35:25;47.21;40.44;67.04;;
72028;Laerm;59781;52.090;5.030;2023-06-14T11:37:57;47.20;40.25;63.19;;
72028;Laerm;59781;52.090;5.030;2023-06-14T11:40:25;55.00;40.35;77.00;;
72028;Laerm;59781;52.090;5.030;2023-06-14T11:42:59;47.25;40.88;69.32;;
72028;Laerm;59781;52.090;5.030;2023-06-14T11:45:26;52.03;41.70;77.50;;
72028;Laerm;59781;52.090;5.030;2023-06-14T11:47:55;48.97;41.21;68.34;;
72028;Laerm;59781;52.090;5.030;2023-06-14T11:50:26;53.22;40.87;75.62;;
72028;Laerm;59781;52.090;5.030;2023-06-14T11:52:59;48.64;40.94;67.99;;
72028;Laerm;59781;52.090;5.030;2023-06-14T11:55:38;52.59;41.20;69.39;;
72028;Laerm;59781;52.090;5.030;2023-06-14T11:58:05;46.60;40.25;62.60;;
72028;Laerm;59781;52.090;5.030;2023-06-14T12:00:31;46.66;41.26;56.99;;
72028;Laerm;59781;52.090;5.030;2023-06-14T12:02:57;46.98;41.22;67.16;;
72028;Laerm;59781;52.090;5.030;2023-06-14T12:05:25;50.73;41.25;71.69;;
72028;Laerm;59781;52.090;5.030;2023-06-14T12:07:59;46.64;40.99;60.83;;
72028;Laerm;59781;52.090;5.030;2023-06-14T12:10:27;48.23;40.04;66.60;;
72028;Laerm;59781;52.090;5.030;2023-06-14T12:12:58;47.46;40.24;68.89;;
72028;Laerm;59781;52.090;5.030;2023-06-14T12:15:24;48.23;40.48;65.77;;
72028;Laerm;59781;52.090;5.030;2023-06-14T12:17:50;48.62;40.09;63.85;;
72028;Laerm;59781;52.090;5.030;2023-06-14T12:20:16;46.98;41.40;62.87;;
72028;Laerm;59781;52.090;5.030;2023-06-14T12:22:55;49.77;42.21;63.44;;
72028;Laerm;59781;52.090;5.030;2023-06-14T12:25:30;47.79;41.35;68.22;;
72028;Laerm;59781;52.090;5.030;2023-06-14T12:28:09;52.08;41.58;76.04;;
72028;Laerm;59781;52.090;5.030;2023-06-14T12:30:38;49.30;40.69;70.81;;
72028;Laerm;59781;52.090;5.030;2023-06-14T12:33:05;51.83;41.85;70.29;;
72028;Laerm;59781;52.090;5.030;2023-06-14T12:35:31;48.30;41.69;66.36;;
72028;Laerm;59781;52.090;5.030;2023-06-14T12:37:57;51.69;40.85;75.34;;
72028;Laerm;59781;52.090;5.030;2023-06-14T12:40:23;47.14;41.12;59.67;;
72028;Laerm;59781;52.090;5.030;2023-06-14T12:42:49;49.16;41.76;68.96;;
72028;Laerm;59781;52.090;5.030;2023-06-14T12:45:15;49.38;41.26;66.37;;
72028;Laerm;59781;52.090;5.030;2023-06-14T12:47:41;50.58;41.64;69.69;;
72028;Laerm;59781;52.090;5.030;2023-06-14T12:50:08;47.24;41.15;62.82;;
72028;Laerm;59781;52.090;5.030;2023-06-14T12:52:33;45.75;36.55;63.71;;
72028;Laerm;59781;52.090;5.030;2023-06-14T12:55:05;47.73;38.30;66.80;;
72028;Laerm;59781;52.090;5.030;2023-06-14T12:57:31;43.03;37.27;65.36;;
72028;Laerm;59781;52.090;5.030;2023-06-14T12:59:57;52.44;38.03;74.84;;
72028;Laerm;59781;52.090;5.030;2023-06-14T13:02:23;42.90;37.09;69.85;;
72028;Laerm;59781;52.090;5.030;2023-06-14T13:04:50;43.06;36.72;59.95;;
72028;Laerm;59781;52.090;5.030;2023-06-14T13:07:16;43.21;36.01;59.88;;
72028;Laerm;59781;52.090;5.030;2023-06-14T13:09:43;48.32;38.37;69.45;;
72028;Laerm;59781;52.090;5.030;2023-06-14T13:12:10;45.11;37.99;63.83;;
72028;Laerm;59781;52.090;5.030;2023-06-14T13:14:41;50.46;37.96;72.34;;
72028;Laerm;59781;52.090;5.030;2023-06-14T13:17:10;47.90;37.88;64.69;;
72028;Laerm;59781;52.090;5.030;2023-06-14T13:19:36;46.05;36.72;63.51;;
72028;Laerm;59781;52.090;5.030;2023-06-14T13:22:03;43.93;36.95;61.70;;
72028;Laerm;59781;52.090;5.030;2023-06-14T13:24:30;42.76;36.99;59.77;;
72028;Laerm;59781;52.090;5.030;2023-06-14T13:26:57;48.69;38.19;68.07;;
72028;Laerm;59781;52.090;5.030;2023-06-14T13:29:24;49.67;37.82;70.95;;
72028;Laerm;59781;52.090;5.030;2023-06-14T13:31:50;45.63;37.32;63.42;;
72028;Laerm;59781;52.090;5.030;2023-06-14T13:34:16;45.35;37.22;61.98;;
72028;Laerm;59781;52.090;5.030;2023-06-14T13:36:41;50.63;38.60;72.69;;
72028;Laerm;59781;52.090;5.030;2023-06-14T13:39:07;51.38;38.51;67.97;;
72028;Laerm;59781;52.090;5.030;2023-06-14T13:41:33;50.69;39.47;68.29;;
72028;Laerm;59781;52.090;5.030;2023-06-14T13:44:01;46.04;37.71;67.47;;
72028;Laerm;59781;52.090;5.030;2023-06-14T13:46:30;43.66;36.39;63.62;;
72028;Laerm;59781;52.090;5.030;2023-06-14T13:48:56;43.31;36.86;57.83;;
72028;Laerm;59781;52.090;5.030;2023-06-14T13:51:23;46.74;37.46;68.06;;
72028;Laerm;59781;52.090;5.030;2023-06-14T13:53:49;51.34;39.26;69.64;;
72028;Laerm;59781;52.090;5.030;2023-06-14T13:56:17;52.66;38.21;67.77;;
72028;Laerm;59781;52.090;5.030;2023-06-14T13:58:43;46.33;38.29;66.73;;